Skip Navigation Links Skip Navigation Links

Current Weather

Washington Dulles International, Washington

For information only: do not use for flight planning or navigation.
Latest weather
Observation time Wednesday, December 2, 2020 9:52 PM EST
Local time Wednesday, December 2, 2020 10:35 PM EST
Flight conditions Visual Meteorological Conditions
Winds
Wind direction West-Northwest (300°)
Wind speed 14 mph
Visibility 10 mi.
Sky condition
Ceiling unlimited
Sky clear
Temperature 36°F
Dewpoint 19°F
Altimeter 30.23 in.Hg
Pressure change last 3 hours-0.01 in.Hg
Pressure rising, then falling
Derived measurements
Relative humidity 50%
Wind chill 27°F
Density altitude -1539 ft.
Sea-level pressure 30.23 in.Hg
Remarks
Automated weather observing station with precipitation discriminator.
METAR KIAD 030252Z 30012KT 10SM CLR 02/M07 A3023 RMK AO2 SLP237 T00221072 50003

Settings

Location code

InnerDrive.Weather 4.0.6770.0 Release CLR 4.0.30319.42000
Copyright ©2018 Inner Drive Technology. All rights reserved. Portions Copyright ©1986-2018 David Braverman.

Find weather

Site navigation


Skip Navigation Links

Place info

Page info

PayPal - The safer, easier way to pay online!

Return home.

Copyright ©2020 Inner Drive Technology. Purveyors of fine, hand-crafted computer software. Page printed 2020-12-03T03:35:40 UTC.